sensor_id;sensor_type;location;lat;lon;timestamp;P1;durP1;ratioP1;P2;durP2;ratioP2
28311;SDS011;15572;48.810;9.148;2023-06-22T00:01:10;12.27;;;10.00;;
28311;SDS011;15572;48.810;9.148;2023-06-22T00:06:08;14.98;;;10.55;;
28311;SDS011;15572;48.810;9.148;2023-06-22T00:11:04;16.42;;;10.85;;
28311;SDS011;15572;48.810;9.148;2023-06-22T00:16:01;15.18;;;11.30;;
28311;SDS011;15572;48.810;9.148;2023-06-22T00:20:57;14.80;;;11.30;;
28311;SDS011;15572;48.810;9.148;2023-06-22T00:25:55;18.27;;;12.27;;
28311;SDS011;15572;48.810;9.148;2023-06-22T00:30:52;16.35;;;11.63;;
28311;SDS011;15572;48.810;9.148;2023-06-22T00:35:48;16.08;;;11.38;;
28311;SDS011;15572;48.810;9.148;2023-06-22T00:40:47;15.73;;;10.90;;
28311;SDS011;15572;48.810;9.148;2023-06-22T00:45:45;15.00;;;11.10;;
28311;SDS011;15572;48.810;9.148;2023-06-22T00:50:42;15.00;;;10.45;;
28311;SDS011;15572;48.810;9.148;2023-06-22T00:55:41;13.15;;;10.13;;
28311;SDS011;15572;48.810;9.148;2023-06-22T01:00:39;15.27;;;10.45;;
28311;SDS011;15572;48.810;9.148;2023-06-22T01:05:38;13.85;;;10.25;;
28311;SDS011;15572;48.810;9.148;2023-06-22T01:10:37;12.88;;;10.05;;
28311;SDS011;15572;48.810;9.148;2023-06-22T01:15:40;13.48;;;10.30;;
28311;SDS011;15572;48.810;9.148;2023-06-22T01:20:42;17.38;;;10.85;;
28311;SDS011;15572;48.810;9.148;2023-06-22T01:25:43;12.77;;;10.23;;
28311;SDS011;15572;48.810;9.148;2023-06-22T01:30:44;14.65;;;10.93;;
28311;SDS011;15572;48.810;9.148;2023-06-22T01:35:42;13.88;;;11.10;;
28311;SDS011;15572;48.810;9.148;2023-06-22T01:40:39;14.50;;;10.98;;
28311;SDS011;15572;48.810;9.148;2023-06-22T01:45:36;13.82;;;10.30;;
28311;SDS011;15572;48.810;9.148;2023-06-22T01:50:34;12.70;;;10.52;;
28311;SDS011;15572;48.810;9.148;2023-06-22T01:55:31;13.77;;;9.80;;
28311;SDS011;15572;48.810;9.148;2023-06-22T02:00:28;17.08;;;11.07;;
28311;SDS011;15572;48.810;9.148;2023-06-22T02:05:28;12.25;;;9.98;;
28311;SDS011;15572;48.810;9.148;2023-06-22T02:10:31;14.10;;;9.27;;
28311;SDS011;15572;48.810;9.148;2023-06-22T02:15:30;11.52;;;9.70;;
28311;SDS011;15572;48.810;9.148;2023-06-22T02:20:27;12.27;;;9.80;;
28311;SDS011;15572;48.810;9.148;2023-06-22T02:25:23;13.38;;;10.30;;
28311;SDS011;15572;48.810;9.148;2023-06-22T02:30:21;16.88;;;12.32;;
28311;SDS011;15572;48.810;9.148;2023-06-22T02:35:18;17.20;;;9.93;;
28311;SDS011;15572;48.810;9.148;2023-06-22T02:40:14;13.10;;;10.32;;
28311;SDS011;15572;48.810;9.148;2023-06-22T02:45:22;14.55;;;10.43;;
28311;SDS011;15572;48.810;9.148;2023-06-22T02:50:38;17.02;;;12.10;;
28311;SDS011;15572;48.810;9.148;2023-06-22T02:55:37;15.40;;;11.70;;
28311;SDS011;15572;48.810;9.148;2023-06-22T03:00:36;12.00;;;10.35;;
28311;SDS011;15572;48.810;9.148;2023-06-22T03:05:34;12.57;;;10.07;;
28311;SDS011;15572;48.810;9.148;2023-06-22T03:10:31;13.23;;;9.80;;
28311;SDS011;15572;48.810;9.148;2023-06-22T03:15:27;13.40;;;10.63;;
28311;SDS011;15572;48.810;9.148;2023-06-22T03:20:27;14.75;;;11.40;;
28311;SDS011;15572;48.810;9.148;2023-06-22T03:25:28;14.75;;;11.13;;
28311;SDS011;15572;48.810;9.148;2023-06-22T03:30:24;14.65;;;10.68;;
28311;SDS011;15572;48.810;9.148;2023-06-22T03:35:21;17.38;;;11.10;;
28311;SDS011;15572;48.810;9.148;2023-06-22T03:40:19;14.52;;;9.85;;
28311;SDS011;15572;48.810;9.148;2023-06-22T03:45:15;15.77;;;11.15;;
28311;SDS011;15572;48.810;9.148;2023-06-22T03:50:12;12.00;;;10.35;;
28311;SDS011;15572;48.810;9.148;2023-06-22T03:55:10;14.13;;;10.50;;
28311;SDS011;15572;48.810;9.148;2023-06-22T04:00:09;18.67;;;12.10;;
28311;SDS011;15572;48.810;9.148;2023-06-22T04:05:06;16.45;;;11.25;;
28311;SDS011;15572;48.810;9.148;2023-06-22T04:10:03;13.75;;;11.05;;
28311;SDS011;15572;48.810;9.148;2023-06-22T04:14:59;13.63;;;11.00;;
28311;SDS011;15572;48.810;9.148;2023-06-22T04:19:57;15.57;;;10.00;;
28311;SDS011;15572;48.810;9.148;2023-06-22T04:24:54;13.48;;;10.88;;
28311;SDS011;15572;48.810;9.148;2023-06-22T04:29:50;15.75;;;10.13;;
28311;SDS011;15572;48.810;9.148;2023-06-22T04:34:47;20.45;;;12.57;;
28311;SDS011;15572;48.810;9.148;2023-06-22T04:39:44;16.02;;;11.80;;
28311;SDS011;15572;48.810;9.148;2023-06-22T04:44:41;13.00;;;10.20;;
28311;SDS011;15572;48.810;9.148;2023-06-22T04:49:38;16.02;;;11.02;;
28311;SDS011;15572;48.810;9.148;2023-06-22T04:54:35;15.68;;;11.35;;
28311;SDS011;15572;48.810;9.148;2023-06-22T04:59:34;14.65;;;11.10;;
28311;SDS011;15572;48.810;9.148;2023-06-22T05:04:31;16.10;;;10.77;;
28311;SDS011;15572;48.810;9.148;2023-06-22T05:09:30;16.17;;;10.18;;
28311;SDS011;15572;48.810;9.148;2023-06-22T05:14:28;14.63;;;10.48;;
28311;SDS011;15572;48.810;9.148;2023-06-22T05:19:26;18.13;;;10.48;;
28311;SDS011;15572;48.810;9.148;2023-06-22T05:24:26;11.80;;;9.32;;
28311;SDS011;15572;48.810;9.148;2023-06-22T05:29:22;13.43;;;9.27;;
28311;SDS011;15572;48.810;9.148;2023-06-22T05:34:19;10.68;;;8.98;;
28311;SDS011;15572;48.810;9.148;2023-06-22T05:39:17;11.00;;;8.85;;
28311;SDS011;15572;48.810;9.148;2023-06-22T05:44:13;13.07;;;9.75;;
28311;SDS011;15572;48.810;9.148;2023-06-22T05:49:10;14.48;;;8.80;;
28311;SDS011;15572;48.810;9.148;2023-06-22T05:54:07;10.18;;;8.02;;
28311;SDS011;15572;48.810;9.148;2023-06-22T05:59:05;12.30;;;8.52;;
28311;SDS011;15572;48.810;9.148;2023-06-22T06:04:02;12.90;;;8.80;;
28311;SDS011;15572;48.810;9.148;2023-06-22T06:08:58;11.68;;;8.80;;
28311;SDS011;15572;48.810;9.148;2023-06-22T06:13:55;11.82;;;8.73;;
28311;SDS011;15572;48.810;9.148;2023-06-22T06:18:53;13.60;;;8.05;;
28311;SDS011;15572;48.810;9.148;2023-06-22T06:23:50;14.32;;;8.93;;
28311;SDS011;15572;48.810;9.148;2023-06-22T06:28:48;13.93;;;8.77;;
28311;SDS011;15572;48.810;9.148;2023-06-22T06:33:44;13.18;;;9.23;;
28311;SDS011;15572;48.810;9.148;2023-06-22T06:38:42;14.80;;;8.93;;
28311;SDS011;15572;48.810;9.148;2023-06-22T06:43:39;10.88;;;8.50;;
28311;SDS011;15572;48.810;9.148;2023-06-22T06:48:35;12.50;;;8.27;;
28311;SDS011;15572;48.810;9.148;2023-06-22T06:53:32;11.95;;;8.68;;
28311;SDS011;15572;48.810;9.148;2023-06-22T06:58:29;10.35;;;8.13;;
28311;SDS011;15572;48.810;9.148;2023-06-22T07:03:26;12.70;;;7.85;;
28311;SDS011;15572;48.810;9.148;2023-06-22T07:08:22;12.82;;;7.97;;
28311;SDS011;15572;48.810;9.148;2023-06-22T07:13:19;15.80;;;7.60;;
28311;SDS011;15572;48.810;9.148;2023-06-22T07:18:16;11.73;;;7.35;;
28311;SDS011;15572;48.810;9.148;2023-06-22T07:23:13;11.70;;;6.95;;
28311;SDS011;15572;48.810;9.148;2023-06-22T07:28:09;14.90;;;9.02;;
28311;SDS011;15572;48.810;9.148;2023-06-22T07:33:06;16.63;;;10.90;;
28311;SDS011;15572;48.810;9.148;2023-06-22T07:38:05;13.32;;;7.13;;
28311;SDS011;15572;48.810;9.148;2023-06-22T07:43:01;8.25;;;6.43;;
28311;SDS011;15572;48.810;9.148;2023-06-22T07:47:58;12.32;;;6.55;;
28311;SDS011;15572;48.810;9.148;2023-06-22T07:52:54;11.13;;;6.47;;
28311;SDS011;15572;48.810;9.148;2023-06-22T07:57:52;11.85;;;6.75;;
28311;SDS011;15572;48.810;9.148;2023-06-22T08:02:49;10.18;;;6.35;;
28311;SDS011;15572;48.810;9.148;2023-06-22T08:07:45;7.97;;;5.82;;
28311;SDS011;15572;48.810;9.148;2023-06-22T08:12:42;10.82;;;6.20;;
28311;SDS011;15572;48.810;9.148;2023-06-22T08:17:40;10.60;;;6.15;;
28311;SDS011;15572;48.810;9.148;2023-06-22T08:22:36;12.75;;;5.88;;
28311;SDS011;15572;48.810;9.148;2023-06-22T08:27:33;10.57;;;6.45;;
28311;SDS011;15572;48.810;9.148;2023-06-22T08:32:30;11.73;;;6.13;;
28311;SDS011;15572;48.810;9.148;2023-06-22T08:37:29;9.63;;;5.78;;
28311;SDS011;15572;48.810;9.148;2023-06-22T08:42:26;8.57;;;5.50;;
28311;SDS011;15572;48.810;9.148;2023-06-22T08:47:23;11.32;;;5.82;;
28311;SDS011;15572;48.810;9.148;2023-06-22T08:52:19;8.82;;;5.38;;
28311;SDS011;15572;48.810;9.148;2023-06-22T08:57:20;11.27;;;5.70;;
28311;SDS011;15572;48.810;9.148;2023-06-22T09:02:16;8.73;;;5.57;;
28311;SDS011;15572;48.810;9.148;2023-06-22T09:07:14;10.75;;;5.90;;
28311;SDS011;15572;48.810;9.148;2023-06-22T09:12:17;8.75;;;5.63;;
28311;SDS011;15572;48.810;9.148;2023-06-22T09:17:16;12.27;;;5.72;;
28311;SDS011;15572;48.810;9.148;2023-06-22T09:22:12;12.10;;;5.65;;
28311;SDS011;15572;48.810;9.148;2023-06-22T09:27:09;11.25;;;5.32;;
28311;SDS011;15572;48.810;9.148;2023-06-22T09:32:06;8.65;;;5.30;;
28311;SDS011;15572;48.810;9.148;2023-06-22T09:37:05;10.32;;;5.50;;
28311;SDS011;15572;48.810;9.148;2023-06-22T09:42:01;11.48;;;5.82;;
28311;SDS011;15572;48.810;9.148;2023-06-22T09:46:58;15.65;;;5.47;;
28311;SDS011;15572;48.810;9.148;2023-06-22T09:51:55;11.25;;;5.50;;
28311;SDS011;15572;48.810;9.148;2023-06-22T09:56:52;12.38;;;5.78;;
28311;SDS011;15572;48.810;9.148;2023-06-22T10:01:49;12.95;;;5.32;;
28311;SDS011;15572;48.810;9.148;2023-06-22T10:06:46;11.52;;;5.97;;
28311;SDS011;15572;48.810;9.148;2023-06-22T10:11:42;9.60;;;5.72;;
28311;SDS011;15572;48.810;9.148;2023-06-22T10:16:40;12.20;;;5.43;;
28311;SDS011;15572;48.810;9.148;2023-06-22T10:21:37;11.00;;;5.93;;
28311;SDS011;15572;48.810;9.148;2023-06-22T10:26:33;39.60;;;25.10;;
28311;SDS011;15572;48.810;9.148;2023-06-22T10:31:30;10.95;;;6.10;;
28311;SDS011;15572;48.810;9.148;2023-06-22T10:36:28;11.48;;;5.70;;
28311;SDS011;15572;48.810;9.148;2023-06-22T10:41:25;11.10;;;5.80;;
28311;SDS011;15572;48.810;9.148;2023-06-22T10:46:26;11.65;;;6.10;;
28311;SDS011;15572;48.810;9.148;2023-06-22T10:57:12;11.73;;;6.00;;
28311;SDS011;15572;48.810;9.148;2023-06-22T11:21:05;10.90;;;5.90;;
28311;SDS011;15572;48.810;9.148;2023-06-22T11:26:42;8.07;;;5.70;;
28311;SDS011;15572;48.810;9.148;2023-06-22T11:31:39;14.05;;;6.15;;
28311;SDS011;15572;48.810;9.148;2023-06-22T11:36:39;11.95;;;6.00;;
28311;SDS011;15572;48.810;9.148;2023-06-22T11:41:36;13.93;;;6.45;;
28311;SDS011;15572;48.810;9.148;2023-06-22T11:46:32;10.65;;;5.78;;
28311;SDS011;15572;48.810;9.148;2023-06-22T11:51:29;13.73;;;6.20;;
28311;SDS011;15572;48.810;9.148;2023-06-22T11:56:28;16.27;;;5.93;;
28311;SDS011;15572;48.810;9.148;2023-06-22T12:01:24;13.77;;;6.38;;
28311;SDS011;15572;48.810;9.148;2023-06-22T12:06:20;14.52;;;6.05;;
28311;SDS011;15572;48.810;9.148;2023-06-22T12:11:17;20.25;;;6.30;;
28311;SDS011;15572;48.810;9.148;2023-06-22T12:16:15;12.30;;;5.63;;
28311;SDS011;15572;48.810;9.148;2023-06-22T12:21:11;10.32;;;5.75;;
28311;SDS011;15572;48.810;9.148;2023-06-22T12:26:08;13.07;;;6.05;;
28311;SDS011;15572;48.810;9.148;2023-06-22T12:31:04;12.15;;;5.82;;
28311;SDS011;15572;48.810;9.148;2023-06-22T12:36:02;13.43;;;6.18;;
28311;SDS011;15572;48.810;9.148;2023-06-22T12:41:00;12.30;;;5.45;;
28311;SDS011;15572;48.810;9.148;2023-06-22T12:45:56;12.77;;;6.30;;
28311;SDS011;15572;48.810;9.148;2023-06-22T12:50:53;12.13;;;5.70;;
28311;SDS011;15572;48.810;9.148;2023-06-22T12:55:50;12.68;;;6.00;;
28311;SDS011;15572;48.810;9.148;2023-06-22T13:00:47;13.23;;;6.10;;
28311;SDS011;15572;48.810;9.148;2023-06-22T13:05:44;19.27;;;6.38;;
28311;SDS011;15572;48.810;9.148;2023-06-22T13:10:40;12.55;;;6.30;;
28311;SDS011;15572;48.810;9.148;2023-06-22T13:15:38;10.38;;;6.35;;
28311;SDS011;15572;48.810;9.148;2023-06-22T13:20:35;12.00;;;5.93;;
28311;SDS011;15572;48.810;9.148;2023-06-22T13:25:31;11.98;;;5.82;;
28311;SDS011;15572;48.810;9.148;2023-06-22T13:30:28;18.95;;;6.50;;
28311;SDS011;15572;48.810;9.148;2023-06-22T13:35:26;11.82;;;6.10;;
28311;SDS011;15572;48.810;9.148;2023-06-22T13:40:22;11.38;;;6.07;;
28311;SDS011;15572;48.810;9.148;2023-06-22T13:45:19;13.18;;;6.68;;
28311;SDS011;15572;48.810;9.148;2023-06-22T13:50:15;9.77;;;6.47;;
28311;SDS011;15572;48.810;9.148;2023-06-22T13:55:13;11.98;;;6.50;;
28311;SDS011;15572;48.810;9.148;2023-06-22T14:00:10;12.95;;;6.70;;
28311;SDS011;15572;48.810;9.148;2023-06-22T14:05:08;13.50;;;5.95;;
28311;SDS011;15572;48.810;9.148;2023-06-22T14:10:06;13.30;;;5.72;;
28311;SDS011;15572;48.810;9.148;2023-06-22T14:15:05;12.63;;;5.70;;
28311;SDS011;15572;48.810;9.148;2023-06-22T14:20:02;11.07;;;5.60;;
28311;SDS011;15572;48.810;9.148;2023-06-22T14:25:00;13.18;;;5.70;;
28311;SDS011;15572;48.810;9.148;2023-06-22T14:29:57;11.13;;;5.47;;
28311;SDS011;15572;48.810;9.148;2023-06-22T14:34:55;11.43;;;5.50;;
28311;SDS011;15572;48.810;9.148;2023-06-22T14:39:51;13.27;;;5.95;;
28311;SDS011;15572;48.810;9.148;2023-06-22T14:44:48;12.45;;;5.78;;
28311;SDS011;15572;48.810;9.148;2023-06-22T14:49:44;11.90;;;5.43;;
28311;SDS011;15572;48.810;9.148;2023-06-22T14:54:42;11.13;;;4.80;;
28311;SDS011;15572;48.810;9.148;2023-06-22T14:59:39;10.13;;;4.05;;
28311;SDS011;15572;48.810;9.148;2023-06-22T15:04:35;8.38;;;2.88;;
28311;SDS011;15572;48.810;9.148;2023-06-22T15:09:32;8.15;;;3.20;;
28311;SDS011;15572;48.810;9.148;2023-06-22T15:14:30;10.90;;;3.05;;
28311;SDS011;15572;48.810;9.148;2023-06-22T15:19:26;10.57;;;3.22;;
28311;SDS011;15572;48.810;9.148;2023-06-22T15:24:23;11.75;;;3.58;;
28311;SDS011;15572;48.810;9.148;2023-06-22T15:29:19;11.68;;;3.30;;
28311;SDS011;15572;48.810;9.148;2023-06-22T15:34:17;8.75;;;3.38;;
28311;SDS011;15572;48.810;9.148;2023-06-22T15:39:14;10.70;;;3.08;;
28311;SDS011;15572;48.810;9.148;2023-06-22T15:44:11;9.13;;;2.78;;
28311;SDS011;15572;48.810;9.148;2023-06-22T15:49:09;10.73;;;2.88;;
28311;SDS011;15572;48.810;9.148;2023-06-22T15:54:07;6.63;;;3.08;;
28311;SDS011;15572;48.810;9.148;2023-06-22T15:59:03;9.00;;;3.13;;
28311;SDS011;15572;48.810;9.148;2023-06-22T16:04:00;12.20;;;3.40;;
28311;SDS011;15572;48.810;9.148;2023-06-22T16:08:57;8.00;;;3.22;;
28311;SDS011;15572;48.810;9.148;2023-06-22T16:13:55;12.82;;;3.50;;
28311;SDS011;15572;48.810;9.148;2023-06-22T16:18:52;10.77;;;3.50;;
28311;SDS011;15572;48.810;9.148;2023-06-22T16:23:48;8.65;;;3.10;;
28311;SDS011;15572;48.810;9.148;2023-06-22T16:28:45;11.18;;;3.33;;
28311;SDS011;15572;48.810;9.148;2023-06-22T16:33:42;10.57;;;3.28;;
28311;SDS011;15572;48.810;9.148;2023-06-22T16:38:42;10.05;;;3.10;;
28311;SDS011;15572;48.810;9.148;2023-06-22T16:43:39;8.18;;;2.97;;
28311;SDS011;15572;48.810;9.148;2023-06-22T16:48:36;7.35;;;3.08;;
28311;SDS011;15572;48.810;9.148;2023-06-22T16:53:34;9.20;;;3.13;;
28311;SDS011;15572;48.810;9.148;2023-06-22T16:58:31;8.02;;;3.25;;
28311;SDS011;15572;48.810;9.148;2023-06-22T17:03:28;7.63;;;3.05;;
28311;SDS011;15572;48.810;9.148;2023-06-22T17:08:27;6.22;;;2.97;;
28311;SDS011;15572;48.810;9.148;2023-06-22T17:13:27;9.75;;;3.50;;
28311;SDS011;15572;48.810;9.148;2023-06-22T17:18:24;11.60;;;3.42;;
28311;SDS011;15572;48.810;9.148;2023-06-22T17:23:22;9.65;;;3.72;;
28311;SDS011;15572;48.810;9.148;2023-06-22T17:28:20;10.88;;;3.45;;
28311;SDS011;15572;48.810;9.148;2023-06-22T17:33:18;10.25;;;3.47;;
28311;SDS011;15572;48.810;9.148;2023-06-22T17:38:19;9.75;;;3.28;;
28311;SDS011;15572;48.810;9.148;2023-06-22T17:43:18;10.07;;;3.15;;
28311;SDS011;15572;48.810;9.148;2023-06-22T17:48:15;6.82;;;3.15;;
28311;SDS011;15572;48.810;9.148;2023-06-22T17:53:17;7.25;;;2.70;;
28311;SDS011;15572;48.810;9.148;2023-06-22T17:58:14;7.43;;;2.80;;
28311;SDS011;15572;48.810;9.148;2023-06-22T18:03:12;4.90;;;1.83;;
28311;SDS011;15572;48.810;9.148;2023-06-22T18:08:10;8.52;;;2.40;;
28311;SDS011;15572;48.810;9.148;2023-06-22T18:13:09;9.63;;;3.10;;
28311;SDS011;15572;48.810;9.148;2023-06-22T18:18:09;7.80;;;3.35;;
28311;SDS011;15572;48.810;9.148;2023-06-22T18:23:08;8.10;;;2.75;;
28311;SDS011;15572;48.810;9.148;2023-06-22T18:28:07;8.23;;;3.00;;
28311;SDS011;15572;48.810;9.148;2023-06-22T18:33:06;11.70;;;2.70;;
28311;SDS011;15572;48.810;9.148;2023-06-22T18:38:02;7.38;;;2.75;;
28311;SDS011;15572;48.810;9.148;2023-06-22T18:43:00;7.47;;;2.45;;
28311;SDS011;15572;48.810;9.148;2023-06-22T18:48:04;6.15;;;2.40;;
28311;SDS011;15572;48.810;9.148;2023-06-22T18:53:01;4.15;;;1.90;;
28311;SDS011;15572;48.810;9.148;2023-06-22T18:58:12;5.82;;;2.22;;
28311;SDS011;15572;48.810;9.148;2023-06-22T19:03:11;3.97;;;2.22;;
28311;SDS011;15572;48.810;9.148;2023-06-22T19:08:24;5.32;;;2.10;;
28311;SDS011;15572;48.810;9.148;2023-06-22T19:13:25;10.63;;;2.60;;
28311;SDS011;15572;48.810;9.148;2023-06-22T19:18:24;7.05;;;2.35;;
28311;SDS011;15572;48.810;9.148;2023-06-22T19:23:28;4.43;;;2.17;;
28311;SDS011;15572;48.810;9.148;2023-06-22T19:28:26;6.78;;;2.90;;
28311;SDS011;15572;48.810;9.148;2023-06-22T19:33:25;6.20;;;2.75;;
28311;SDS011;15572;48.810;9.148;2023-06-22T19:38:23;5.68;;;2.78;;
28311;SDS011;15572;48.810;9.148;2023-06-22T19:43:20;6.78;;;2.60;;
28311;SDS011;15572;48.810;9.148;2023-06-22T19:48:18;6.55;;;2.78;;
28311;SDS011;15572;48.810;9.148;2023-06-22T19:53:16;8.15;;;2.97;;
28311;SDS011;15572;48.810;9.148;2023-06-22T19:58:13;6.22;;;2.85;;
28311;SDS011;15572;48.810;9.148;2023-06-22T20:03:10;6.82;;;2.90;;
28311;SDS011;15572;48.810;9.148;2023-06-22T20:08:14;5.15;;;2.80;;
28311;SDS011;15572;48.810;9.148;2023-06-22T20:13:12;7.28;;;2.83;;
28311;SDS011;15572;48.810;9.148;2023-06-22T20:18:10;7.88;;;3.08;;
28311;SDS011;15572;48.810;9.148;2023-06-22T20:23:07;6.85;;;3.20;;
28311;SDS011;15572;48.810;9.148;2023-06-22T20:28:07;7.25;;;3.67;;
28311;SDS011;15572;48.810;9.148;2023-06-22T20:33:06;9.18;;;3.42;;
28311;SDS011;15572;48.810;9.148;2023-06-22T20:38:10;8.07;;;3.75;;
28311;SDS011;15572;48.810;9.148;2023-06-22T20:43:12;7.00;;;3.92;;
28311;SDS011;15572;48.810;9.148;2023-06-22T20:48:09;9.27;;;3.22;;
28311;SDS011;15572;48.810;9.148;2023-06-22T20:53:06;5.00;;;2.90;;
28311;SDS011;15572;48.810;9.148;2023-06-22T20:58:03;8.10;;;3.33;;
28311;SDS011;15572;48.810;9.148;2023-06-22T21:03:02;7.05;;;3.42;;
28311;SDS011;15572;48.810;9.148;2023-06-22T21:07:58;3.70;;;2.17;;
28311;SDS011;15572;48.810;9.148;2023-06-22T21:12:55;4.40;;;1.50;;
28311;SDS011;15572;48.810;9.148;2023-06-22T21:17:51;1.02;;;0.88;;
28311;SDS011;15572;48.810;9.148;2023-06-22T21:22:49;0.75;;;0.60;;
28311;SDS011;15572;48.810;9.148;2023-06-22T21:27:46;0.98;;;0.57;;
28311;SDS011;15572;48.810;9.148;2023-06-22T21:32:42;0.90;;;0.52;;
28311;SDS011;15572;48.810;9.148;2023-06-22T21:37:40;0.60;;;0.60;;
28311;SDS011;15572;48.810;9.148;2023-06-22T21:42:38;0.98;;;0.73;;
28311;SDS011;15572;48.810;9.148;2023-06-22T21:47:34;1.45;;;0.70;;
28311;SDS011;15572;48.810;9.148;2023-06-22T21:52:32;1.27;;;0.88;;
28311;SDS011;15572;48.810;9.148;2023-06-22T21:57:28;0.80;;;0.77;;
28311;SDS011;15572;48.810;9.148;2023-06-22T22:02:26;1.50;;;0.85;;
28311;SDS011;15572;48.810;9.148;2023-06-22T22:07:22;1.80;;;0.90;;
28311;SDS011;15572;48.810;9.148;2023-06-22T22:12:20;1.42;;;1.00;;
28311;SDS011;15572;48.810;9.148;2023-06-22T22:17:16;2.05;;;1.10;;
28311;SDS011;15572;48.810;9.148;2023-06-22T22:22:14;1.10;;;1.00;;
28311;SDS011;15572;48.810;9.148;2023-06-22T22:27:11;3.05;;;1.20;;
28311;SDS011;15572;48.810;9.148;2023-06-22T22:32:07;1.27;;;1.10;;
28311;SDS011;15572;48.810;9.148;2023-06-22T22:37:04;1.73;;;1.10;;
28311;SDS011;15572;48.810;9.148;2023-06-22T22:42:02;1.48;;;1.30;;
28311;SDS011;15572;48.810;9.148;2023-06-22T22:46:59;1.70;;;1.23;;
28311;SDS011;15572;48.810;9.148;2023-06-22T22:51:56;2.45;;;1.52;;
28311;SDS011;15572;48.810;9.148;2023-06-22T22:56:52;2.00;;;1.60;;
28311;SDS011;15572;48.810;9.148;2023-06-22T23:01:50;2.00;;;1.48;;
28311;SDS011;15572;48.810;9.148;2023-06-22T23:06:47;1.70;;;1.48;;
28311;SDS011;15572;48.810;9.148;2023-06-22T23:11:44;2.22;;;1.50;;
28311;SDS011;15572;48.810;9.148;2023-06-22T23:16:41;1.30;;;1.20;;
28311;SDS011;15572;48.810;9.148;2023-06-22T23:21:40;2.65;;;1.42;;
28311;SDS011;15572;48.810;9.148;2023-06-22T23:26:36;2.13;;;1.60;;
28311;SDS011;15572;48.810;9.148;2023-06-22T23:31:33;3.85;;;1.90;;
28311;SDS011;15572;48.810;9.148;2023-06-22T23:36:29;1.70;;;1.40;;
28311;SDS011;15572;48.810;9.148;2023-06-22T23:41:27;2.13;;;1.77;;
28311;SDS011;15572;48.810;9.148;2023-06-22T23:46:23;2.03;;;1.90;;
28311;SDS011;15572;48.810;9.148;2023-06-22T23:51:20;1.92;;;1.73;;
28311;SDS011;15572;48.810;9.148;2023-06-22T23:56:16;2.03;;;1.85;;
